Latest Coastal Weather Observations for Hamilton Island

IDQ60701

Issued at 7:02 am EST Tuesday 7 July 2020 (issued every 10 minutes, with the page automatically refreshed every 10 minutes)

About coastal observations | Map of coastal stations | Coastal observations for QLD | Marine services | Other Formats
Station Details ID: 033106 Name: HAMILTON ISLAND AIRPORT Lat: -20.37 Lon: 148.95 Height: 58.66 m
Data from the previous 72 hours. | See also: Recent months at Hamilton Island
Date/Time
EST
Wind Sea
Height
m
Swell Vis
km
Cloud Weather Temp
°C
Press
hPa
Rain since
9am
mm
Dir  Spd
kts
Gust
kts
Height
m
Period
s
Dir
07/07:00am SSE 21 25 - - - - 10 Partly cloudy - 18.6 1021.2 0.0
07/06:30am SSE 22 27 - - - - 10 Partly cloudy - 18.5 1021.0 0.0
07/06:00am SSE 22 25 - - - - 10 Cloudy - 19.0 1020.8 0.0
07/05:30am SSE 18 23 - - - - 10 Partly cloudy - 18.6 1020.5 0.0
07/05:00am SSE 21 27 - - - - 10 Partly cloudy - 18.5 1020.3 0.0
07/04:30am SSE 22 27 - - - - 10 Partly cloudy - 18.6 1020.1 0.0
07/04:16am SSE 22 25 - - - - 10 Partly cloudy - 18.8 1020.1 0.0
07/04:00am SSE 21 27 - - - - 10 Partly cloudy - 18.9 1020.2 0.0
07/03:38am SSE 19 26 - - - - 10 Partly cloudy - 19.3 1020.3 0.0
07/03:30am SSE 16 21 - - - - 10 Partly cloudy - 18.9 1020.4 0.0
07/03:11am SSE 19 25 - - - - 10 Partly cloudy - 18.6 1020.6 0.0
07/03:00am SSE 17 23 - - - - 10 Cloudy - 18.4 1020.7 0.0
07/02:54am SSE 16 20 - - - - 10 Partly cloudy - 18.4 1020.8 0.0
07/02:30am SSE 18 22 - - - - 10 Partly cloudy - 18.8 1020.8 0.0
07/02:00am SSE 20 23 - - - - 10 Partly cloudy - 18.7 1021.0 0.0
07/01:30am SSE 21 25 - - - - 10 Partly cloudy - 19.0 1021.1 0.0
07/01:00am SSE 21 25 - - - - 10 Cloudy - 19.0 1021.4 0.0
07/12:30am SSE 20 25 - - - - 10 Partly cloudy - 19.3 1021.8 0.0
07/12:00am SSE 20 25 - - - - 10 - - 19.3 1022.0 0.0
 
Date/Time
EST
Wind Sea
Height
m
Swell Vis
km
Cloud Weather Temp
°C
Press
hPa
Rain since
9am
mm
Dir  Spd
kts
Gust
kts
Height
m
Period
s
Dir
06/11:30pm SSE 19 23 - - - - 10 Partly cloudy - 19.4 1022.5 0.0
06/11:00pm SSE 17 22 - - - - 10 Partly cloudy - 19.0 1022.7 0.0
06/10:30pm SSE 18 23 - - - - 10 Partly cloudy - 19.3 1022.7 0.0
06/10:00pm SSE 20 25 - - - - 10 Partly cloudy - 19.1 1022.8 0.0
06/09:30pm SSE 19 24 - - - - 10 Partly cloudy - 19.0 1022.9 0.0
06/09:08pm SSE 20 25 - - - - 10 Partly cloudy - 19.1 1022.8 0.0
06/09:00pm SSE 20 25 - - - - 10 Partly cloudy - 19.1 1022.7 0.0
06/08:30pm SSE 20 27 - - - - 10 Partly cloudy - 19.2 1022.4 0.0
06/08:18pm SSE 21 27 - - - - 10 Partly cloudy - 19.3 1022.3 0.0
06/08:00pm SSE 24 29 - - - - 10 Partly cloudy - 19.6 1022.1 0.0
06/07:56pm SSE 24 28 - - - - 10 Partly cloudy - 19.5 1022.1 0.0
06/07:38pm SSE 23 27 - - - - 10 Partly cloudy - 19.5 1022.0 0.0
06/07:30pm SSE 22 27 - - - - 10 Cloudy - 19.5 1022.0 0.0
06/07:00pm SSE 22 28 - - - - 10 Cloudy - 19.2 1021.8 0.0
06/06:30pm SSE 23 27 - - - - 10 Cloudy - 19.1 1021.4 0.0
06/06:00pm SSE 22 25 - - - - 10 Mostly cloudy - 19.1 1021.2 0.0
06/05:30pm SSE 23 26 - - - - 10 Partly cloudy - 19.0 1021.1 0.0
06/05:00pm SSE 22 26 - - - - 10 Partly cloudy - 19.1 1020.9 0.0
06/04:30pm SSE 22 25 - - - - 10 Cloudy - 18.9 1020.6 0.0
06/04:00pm SSE 20 23 - - - - 10 Partly cloudy - 19.2 1020.6 0.0
06/03:30pm SSE 20 24 - - - - 10 Partly cloudy - 19.3 1020.5 0.0
06/03:00pm SSE 22 26 - - - - 10 Partly cloudy - 19.2 1020.5 0.0
06/02:30pm SSE 21 25 - - - - 10 Partly cloudy - 19.1 1020.7 0.0
06/02:00pm SSE 22 25 - - - - 10 Partly cloudy - 19.1 1020.8 0.0
06/01:30pm SSE 22 25 - - - - 10 - - 19.7 1021.1 0.0
06/01:00pm SSE 22 25 - - - - 10 Partly cloudy - 19.7 1021.1 0.0
06/12:30pm SSE 20 24 - - - - 10 Partly cloudy - 19.0 1021.6 0.0
06/12:00pm SSE 20 24 - - - - 10 - - 19.0 1022.0 0.0
06/11:30am SSE 20 24 - - - - 10 Partly cloudy - 19.0 1022.4 0.0
06/11:00am SSE 19 24 - - - - 10 Partly cloudy - 18.6 1022.7 0.0
06/10:30am SSE 17 23 - - - - 10 - - 18.6 1022.9 0.0
06/10:00am SSE 18 22 - - - - 10 - - 18.4 1022.9 0.0
06/09:30am SSE 19 23 - - - - 10 - - 18.3 1022.9 0.0
06/09:00am SSE 20 25 - - - - 10 - - 18.2 1022.8 0.0
06/08:30am SSE 20 24 - - - - 10 - - 18.0 1022.8 0.0
06/08:00am SSE 23 25 - - - - 10 - - 17.9 1022.4 0.0
06/07:30am SE 21 25 - - - - 10 - - 17.8 1022.1 0.0
06/07:00am SE 21 25 - - - - 10 - - 17.4 1021.9 0.0
06/06:30am SSE 22 26 - - - - 10 - - 17.3 1021.3 0.0
06/06:00am SSE 21 25 - - - - 10 - - 17.6 1021.0 0.0
06/05:30am SSE 21 24 - - - - 10 - - 17.6 1020.4 0.0
06/05:00am SSE 20 24 - - - - 10 - - 17.6 1020.4 0.0
06/04:30am SSE 19 24 - - - - 10 - - 17.6 1020.0 0.0
06/04:00am SSE 18 22 - - - - 10 - - 17.7 1020.2 0.0
06/03:30am SSE 18 22 - - - - 10 - - 17.7 1020.0 0.0
06/03:00am SSE 18 21 - - - - 10 Partly cloudy - 17.8 1019.9 0.0
06/02:30am SSE 17 20 - - - - 10 - - 17.6 1020.1 0.0
06/02:00am SE 16 19 - - - - 10 - - 17.7 1020.3 0.0
06/01:30am SSE 14 19 - - - - 10 - - 17.7 1020.8 0.0
06/01:00am SE 17 19 - - - - 10 - - 17.9 1021.0 0.0
06/12:30am SE 17 21 - - - - 10 - - 17.8 1021.0 0.0
06/12:00am SE 18 23 - - - - 10 Cloudy - 17.8 1021.2 0.0
 
Date/Time
EST
Wind Sea
Height
m
Swell Vis
km
Cloud Weather Temp
°C
Press
hPa
Rain since
9am
mm
Dir  Spd
kts
Gust
kts
Height
m
Period
s
Dir
05/11:30pm SE 18 20 - - - - 10 - - 17.7 1021.5 0.0
05/11:00pm SE 17 20 - - - - 10 - - 17.8 1021.7 0.0
05/10:30pm SE 17 20 - - - - 10 - - 17.7 1021.9 0.0
05/10:00pm SE 17 20 - - - - 10 - - 17.8 1022.0 0.0
05/09:30pm SE 17 20 - - - - 10 - - 17.8 1021.9 0.0
05/09:00pm SE 18 21 - - - - 10 - - 17.7 1021.6 0.0
05/08:30pm SE 16 19 - - - - 10 - - 17.6 1021.6 0.0
05/08:00pm SE 15 18 - - - - 10 - - 17.3 1021.4 0.0
05/07:30pm SE 14 17 - - - - 10 - - 17.0 1021.3 0.0
05/07:00pm SE 17 19 - - - - 10 - - 17.3 1021.1 0.0
05/06:30pm SE 16 18 - - - - 10 - - 17.3 1020.6 0.0
05/06:00pm SE 16 19 - - - - 10 Partly cloudy - 17.2 1020.4 0.0
05/05:30pm SE 17 19 - - - - 10 - - 17.4 1020.2 0.0
05/05:00pm SE 16 19 - - - - 10 - - 17.3 1020.2 0.0
05/04:30pm SE 17 21 - - - - 10 - - 17.3 1020.0 0.0
05/04:00pm SE 17 22 - - - - 10 - - 17.4 1020.1 0.0
05/03:30pm SE 18 23 - - - - 10 - - 17.6 1020.0 0.0
05/03:00pm SE 19 23 - - - - 10 Partly cloudy - 17.9 1020.0 0.0
05/02:30pm SSE 19 23 - - - - 10 - - 17.7 1020.2 0.0
05/02:00pm SSE 19 23 - - - - 10 - - 17.8 1020.4 0.0
05/01:30pm SE 18 23 - - - - 10 - - 18.0 1020.9 0.0
05/01:00pm SE 19 24 - - - - 10 - - 18.0 1021.2 0.0
05/12:30pm SE 23 26 - - - - 10 - - 18.0 1021.4 0.0
05/12:00pm SSE 23 27 - - - - 10 - - 17.0 1021.8 0.0
05/11:30am SSE 22 26 - - - - 10 - - 17.9 1022.2 0.0
05/11:00am SE 21 25 - - - - 10 - - 17.9 1022.3 0.0
05/10:30am SSE 22 26 - - - - 10 - - 17.4 1022.6 0.0
05/10:00am SSE 22 27 - - - - 10 - - 17.3 1022.5 0.0
05/09:30am SSE 24 29 - - - - 10 - - 17.2 1022.3 0.0
05/09:00am SSE 25 32 - - - - 10 - - 17.6 1022.3 0.0
05/08:30am SSE 25 31 - - - - 10 - - 17.3 1022.0 0.0
05/08:00am SSE 24 32 - - - - 10 - - 17.1 1021.8 0.0
05/07:30am SE 25 30 - - - - 10 - - 17.3 1021.3 0.0
05/07:00am SSE 24 29 - - - - 10 - - 17.1 1021.0 0.0
05/06:30am SSE 22 27 - - - - 10 - - 17.0 1020.9 0.0
05/06:00am SSE 23 29 - - - - 10 - - 17.3 1020.6 0.0
05/05:30am SSE 23 27 - - - - 10 - - 17.7 1020.3 0.0
05/05:00am SSE 21 26 - - - - 10 - - 18.0 1020.1 0.0
05/04:30am SSE 20 24 - - - - 10 - - 18.1 1019.9 0.0
05/04:00am SSE 22 26 - - - - 10 - - 18.5 1019.9 0.0
05/03:30am SSE 22 26 - - - - 10 - - 18.7 1019.9 0.0
05/03:00am SSE 20 24 - - - - 10 - - 19.0 1019.9 0.0
05/02:30am SSE 16 21 - - - - 10 - - 18.6 1020.2 0.0
05/02:00am S 17 23 - - - - 10 - - 18.7 1020.3 0.0
05/01:30am SSE 20 25 - - - - 10 - - 19.5 1020.4 0.0
05/01:00am SSE 14 20 - - - - 10 - - 19.1 1020.7 0.0
05/12:30am S 15 19 - - - - 10 - - 19.1 1020.8 0.0
05/12:00am S 16 19 - - - - 10 - - 19.3 1020.8 0.0
 
Date/Time
EST
Wind Sea
Height
m
Swell Vis
km
Cloud Weather Temp
°C
Press
hPa
Rain since
9am
mm
Dir  Spd
kts
Gust
kts
Height
m
Period
s
Dir
04/11:30pm SSE 17 19 - - - - 10 - - 20.7 1020.9 0.0
04/11:00pm SE 14 17 - - - - 10 - - 20.3 1021.0 0.0
04/10:30pm SE 17 20 - - - - 10 - - 20.4 1020.9 0.0
04/10:00pm SE 13 15 - - - - 10 - - 20.2 1021.0 0.0
04/09:30pm SE 12 14 - - - - 10 - - 20.1 1020.9 0.0
04/09:00pm SE 14 16 - - - - 10 - - 20.3 1020.8 0.0
04/08:30pm SE 13 16 - - - - 10 - - 20.2 1020.6 0.0
04/08:00pm SE 13 16 - - - - 10 - - 19.9 1020.3 0.0
04/07:30pm SE 13 17 - - - - 10 - - 19.9 1020.0 0.0
04/07:00pm SE 14 17 - - - - 10 - - 20.1 1019.6 0.0
04/06:30pm SE 11 14 - - - - 10 - - 20.0 1019.4 0.0
04/06:00pm SE 7 10 - - - - 10 - - 19.9 1019.2 0.0
04/05:30pm SE 7 9 - - - - 10 - - 20.3 1018.9 0.0
04/05:00pm ESE 12 15 - - - - 10 - - 20.5 1018.5 0.0
04/04:30pm E 13 16 - - - - 10 - - 20.9 1018.1 0.0
04/04:00pm E 12 15 - - - - 10 - - 21.0 1017.9 0.0
04/03:30pm E 12 14 - - - - 10 - - 21.2 1017.8 0.0
04/03:00pm ESE 12 14 - - - - 10 - - 21.3 1017.7 0.0
04/02:30pm SE 13 15 - - - - 10 - - 21.6 1017.9 0.0
04/02:00pm SE 15 16 - - - - 10 - - 21.5 1018.2 0.0
04/01:30pm SE 16 19 - - - - 10 - - 21.1 1018.6 0.0
04/01:00pm SE 15 17 - - - - 10 - - 21.3 1019.0 0.0
04/12:30pm SSE 20 22 - - - - 10 - - 21.0 1019.5 0.0
04/12:00pm SE 17 20 - - - - 10 - - 21.6 1019.9 0.0
04/11:30am SSE 14 16 - - - - 10 - - 21.1 1020.5 0.0
04/11:00am SSE 13 16 - - - - 10 - - 21.4 1020.8 0.0
04/10:30am SSE 11 14 - - - - 10 - - 21.2 1020.9 0.0
04/10:00am SSE 10 13 - - - - 10 - - 21.3 1021.1 0.0
04/09:30am SSE 10 12 - - - - 10 - - 21.2 1021.2 0.0
04/09:00am SSE 9 11 - - - - 10 - - 20.9 1021.1 3.6
04/08:30am SSE 8 11 - - - - 10 - - 20.6 1020.8 3.6
04/08:00am SSE 9 11 - - - - 10 - - 20.0 1020.5 3.6
04/07:30am SSE 7 10 - - - - 10 - - 19.7 1020.2 3.6

Other formats

Comma delimited format used in spreadsheet applications
http://www.bom.gov.au/fwo/IDQ60701/IDQ60701.94368.axf

JavaScript Object Notation format (JSON) in row-major order
http://www.bom.gov.au/fwo/IDQ60701/IDQ60701.94368.json

Data quality

Most of these data are generated automatically and are frequently updated. Quality checks on data are not normally performed. It is possible for incorrect values to appear. Refer to information at About Latest Weather Observations and please check the disclaimer before using these data.